Terminal Aerodrome Forecast
Issued by NWS

Home | Current Version | Previous Version | Text Only | Print | Product List | Glossary On
Versions: 1 2 3 4 5 6 7 8 9 10 11 12 13 14 15 16
000
FTUS46 KSEW 300530
TAFBFI
TAF
KBFI 300530Z 3006/0106 18005KT P6SM SKC
     FM301200 18002KT P6SM SCT011
      TEMPO 3013/3016 BKN011
     FM301700 24004KT P6SM SCT250
     FM302200 31007KT P6SM FEW250=

USA.gov is the U.S. government's official web portal to all federal, state and local government web resources and services.